logo
Search for airport 
image banner adimage banner adimage banner ad
image banner ad

OMAS - Das Island

Located in , United Arab Emirates

ICAO - OMAS, IATA -

Data provided by Airmate  

General information

Coordinates: N25°8'18" E52°52'27"
Elevation is 23 feet MSL.
 
View others Airports in Abu Dhabi Emirate

Operational data

Special qualification required
Current time UTC:
Current local time:
Weather at : - ( 0 km )
METAR: EHKD 200725Z AUTO 34011KT 240V030 9999 SCT024 SCT036 08/03 Q1020 WHT TEMPO 4500 -SHRA SCT015 SCT020CB BKN022
View NOTAMs / SUP AIP / TFR affecting this airport [VIEW]
Communications frequencies: [VIEW]

Runways:

RWY identifierQFULength (ft)Width (ft)SurfaceLDA (ft)
13130°6890148UNK
31310°6890148UNK

Airport contact information

Address: United Arab Emirates

Satellite view of OMAS